createdAt,value
2022-08-03T00:00:45.227Z,67.38
2022-08-03T00:01:45.220Z,67.47
2022-08-03T00:02:45.255Z,67.28
2022-08-03T00:03:45.192Z,67.85
2022-08-03T00:04:45.171Z,67.47
2022-08-03T00:06:04.841Z,67.76
2022-08-03T00:06:45.141Z,67.95
2022-08-03T00:07:45.129Z,67.76
2022-08-03T00:08:45.120Z,67.76
2022-08-03T00:09:45.110Z,67.57
2022-08-03T00:10:45.093Z,68.05
2022-08-03T00:11:45.077Z,68.24
2022-08-03T00:12:45.067Z,68.24
2022-08-03T00:13:45.052Z,68.24
2022-08-03T00:14:45.043Z,67.95
2022-08-03T00:15:45.053Z,68.24
2022-08-03T00:16:45.029Z,68.72
2022-08-03T00:17:53.493Z,68.72
2022-08-03T00:18:44.987Z,68.43
2022-08-03T00:19:44.975Z,68.43
2022-08-03T00:20:44.967Z,68.91
2022-08-03T00:21:44.947Z,69.10
2022-08-03T00:22:44.941Z,68.81
2022-08-03T00:23:51.570Z,69.20
2022-08-03T00:24:44.908Z,68.91
2022-08-03T00:25:44.896Z,68.91
2022-08-03T00:26:44.881Z,69.01
2022-08-03T00:27:44.875Z,68.62
2022-08-03T00:28:44.857Z,68.62
2022-08-03T00:29:59.623Z,69.39
2022-08-03T00:30:44.828Z,69.39
2022-08-03T00:31:52.608Z,69.29
2022-08-03T00:32:45.329Z,69.68
2022-08-03T00:33:59.008Z,69.48
2022-08-03T00:34:57.669Z,69.87
2022-08-03T00:35:50.125Z,69.58
2022-08-03T00:36:44.750Z,69.48
2022-08-03T00:37:44.742Z,69.39
2022-08-03T00:38:44.727Z,69.58
2022-08-03T00:39:44.711Z,69.39
2022-08-03T00:40:44.705Z,69.96
2022-08-03T00:41:44.684Z,69.87
2022-08-03T00:42:44.680Z,70.06
2022-08-03T00:43:44.659Z,70.06
2022-08-03T00:44:44.642Z,70.41
2022-08-03T00:45:44.635Z,70.44
2022-08-03T00:46:44.618Z,70.31
2022-08-03T00:47:44.605Z,70.70
2022-08-03T00:48:44.592Z,70.50
2022-08-03T00:49:44.576Z,70.50
2022-08-03T00:50:44.573Z,70.70
2022-08-03T00:51:44.552Z,70.60
2022-08-03T00:52:44.539Z,70.89
2022-08-03T00:53:44.535Z,70.79
2022-08-03T00:54:44.513Z,70.79
2022-08-03T00:55:44.507Z,70.98
2022-08-03T00:56:59.654Z,70.98
2022-08-03T00:57:44.473Z,71.27
2022-08-03T00:58:44.457Z,70.89
2022-08-03T00:59:44.455Z,71.66
2022-08-03T01:00:44.434Z,71.75
2022-08-03T01:01:44.462Z,71.75
2022-08-03T01:02:44.409Z,71.75
2022-08-03T01:03:44.394Z,71.46
2022-08-03T01:04:44.378Z,71.94
2022-08-03T01:05:44.365Z,71.75
2022-08-03T01:06:44.351Z,72.13
2022-08-03T01:07:44.339Z,72.80
2022-08-03T01:08:44.336Z,72.23
2022-08-03T01:09:44.315Z,72.32
2022-08-03T01:10:44.300Z,72.23
2022-08-03T01:11:59.787Z,72.13
2022-08-03T01:12:44.276Z,72.52
2022-08-03T01:14:03.958Z,72.42
2022-08-03T01:14:44.245Z,72.42
2022-08-03T01:15:44.232Z,72.52
2022-08-03T01:16:44.216Z,72.80
2022-08-03T01:17:44.209Z,72.61
2022-08-03T01:18:44.191Z,72.23
2022-08-03T01:19:44.177Z,72.42
2022-08-03T01:20:44.163Z,72.42
2022-08-03T01:21:44.152Z,72.61
2022-08-03T01:22:44.136Z,72.61
2022-08-03T01:23:44.127Z,72.61
2022-08-03T01:24:44.161Z,72.71
2022-08-03T01:25:44.103Z,72.80
2022-08-03T01:26:44.085Z,72.80
2022-08-03T01:27:44.070Z,72.80
2022-08-03T01:28:44.058Z,72.71
2022-08-03T01:29:44.043Z,72.71
2022-08-03T01:30:44.033Z,72.71
2022-08-03T01:32:51.810Z,72.90
2022-08-03T01:33:02.476Z,72.90
2022-08-03T01:33:43.990Z,72.99
2022-08-03T01:34:43.976Z,73.09
2022-08-03T01:35:43.961Z,73.09
2022-08-03T01:36:43.946Z,72.90
2022-08-03T01:37:43.939Z,73.28
2022-08-03T01:38:43.923Z,73.38
2022-08-03T01:39:43.908Z,73.28
2022-08-03T01:40:43.893Z,73.38
2022-08-03T01:41:43.880Z,73.09
2022-08-03T01:42:43.872Z,73.19
2022-08-03T01:44:28.057Z,73.28
2022-08-03T01:44:43.866Z,73.66
2022-08-03T01:45:43.831Z,73.86
2022-08-03T01:46:48.829Z,73.66
2022-08-03T01:47:52.482Z,73.72
2022-08-03T01:49:49.374Z,73.66
2022-08-03T01:50:49.231Z,73.86
2022-08-03T01:51:57.956Z,73.91
2022-08-03T01:52:49.211Z,73.63
2022-08-03T01:53:49.191Z,73.95
2022-08-03T01:54:49.181Z,73.95
2022-08-03T01:55:49.162Z,74.05
2022-08-03T01:56:49.150Z,74.40
2022-08-03T01:58:05.469Z,74.24
2022-08-03T01:58:49.123Z,74.11
2022-08-03T01:59:49.109Z,74.30
2022-08-03T02:00:49.151Z,74.49
2022-08-03T02:02:29.075Z,74.68
2022-08-03T02:02:49.103Z,74.97
2022-08-03T02:04:00.573Z,74.68
2022-08-03T02:04:49.046Z,74.97
2022-08-03T02:05:54.133Z,75.16
2022-08-03T02:07:01.100Z,75.07
2022-08-03T02:07:48.999Z,75.54
2022-08-03T02:08:48.993Z,75.54
2022-08-03T02:09:48.978Z,75.64
2022-08-03T02:10:48.962Z,74.77
2022-08-03T02:11:48.946Z,75.35
2022-08-03T02:12:51.128Z,75.83
2022-08-03T02:13:48.920Z,75.35
2022-08-03T02:14:48.909Z,75.16
2022-08-03T02:15:48.894Z,75.73
2022-08-03T02:16:48.884Z,75.26
2022-08-03T02:17:48.862Z,75.16
2022-08-03T02:18:48.851Z,75.45
2022-08-03T02:19:48.837Z,75.64
2022-08-03T02:20:48.822Z,75.83
2022-08-03T02:21:57.006Z,75.64
2022-08-03T02:22:48.802Z,75.93
2022-08-03T02:23:48.779Z,75.93
2022-08-03T02:24:51.152Z,75.64
2022-08-03T02:25:48.760Z,75.73
2022-08-03T02:26:48.745Z,75.64
2022-08-03T02:27:48.731Z,75.64
2022-08-03T02:28:48.715Z,75.73
2022-08-03T02:29:48.701Z,76.31
2022-08-03T02:30:53.713Z,76.31
2022-08-03T02:31:48.693Z,75.93
2022-08-03T02:32:48.658Z,76.21
2022-08-03T02:33:48.653Z,76.40
2022-08-03T02:34:48.634Z,76.50
2022-08-03T02:35:48.621Z,76.60
2022-08-03T02:36:48.607Z,76.89
2022-08-03T02:37:49.546Z,76.69
2022-08-03T02:38:48.577Z,76.79
2022-08-03T02:39:48.567Z,76.60
2022-08-03T02:40:48.551Z,77.08
2022-08-03T02:41:48.540Z,76.50
2022-08-03T02:42:48.524Z,77.46
2022-08-03T02:44:06.255Z,77.36
2022-08-03T02:44:48.507Z,77.26
2022-08-03T02:45:48.488Z,77.08
2022-08-03T02:46:48.471Z,77.42
2022-08-03T02:47:54.516Z,77.46
2022-08-03T02:48:48.441Z,77.55
2022-08-03T02:49:51.414Z,77.65
2022-08-03T02:50:48.416Z,77.36
2022-08-03T02:51:48.402Z,77.36
2022-08-03T02:52:48.387Z,77.55
2022-08-03T02:53:48.372Z,77.26
2022-08-03T02:54:48.366Z,77.46
2022-08-03T02:55:48.345Z,77.46
2022-08-03T02:56:48.334Z,77.42
2022-08-03T02:57:48.318Z,77.23
2022-08-03T02:58:48.304Z,77.46
2022-08-03T02:59:48.292Z,77.90
2022-08-03T03:00:48.308Z,77.80
2022-08-03T03:01:48.266Z,77.84
2022-08-03T03:02:48.253Z,77.70
2022-08-03T03:03:48.237Z,77.61
2022-08-03T03:05:53.533Z,77.46
2022-08-03T03:05:55.712Z,77.36
2022-08-03T03:06:48.196Z,77.75
2022-08-03T03:07:52.053Z,77.94
2022-08-03T03:08:48.167Z,77.55
2022-08-03T03:09:48.150Z,78.03
2022-08-03T03:10:48.139Z,77.94
2022-08-03T03:11:48.126Z,78.03
2022-08-03T03:12:48.116Z,78.13
2022-08-03T03:13:48.098Z,77.90
2022-08-03T03:14:48.083Z,77.84
2022-08-03T03:15:48.071Z,78.61
2022-08-03T03:16:48.059Z,78.13
2022-08-03T03:17:48.045Z,78.09
2022-08-03T03:18:48.032Z,78.42
2022-08-03T03:19:48.015Z,78.47
2022-08-03T03:20:48.002Z,78.76
2022-08-03T03:21:47.989Z,78.57
2022-08-03T03:22:47.982Z,78.38
2022-08-03T03:23:47.990Z,78.47
2022-08-03T03:24:47.947Z,78.38
2022-08-03T03:25:47.931Z,78.38
2022-08-03T03:26:47.922Z,79.14
2022-08-03T03:27:50.787Z,78.76
2022-08-03T03:28:47.894Z,78.76
2022-08-03T03:29:47.883Z,78.76
2022-08-03T03:30:53.170Z,79.24
2022-08-03T03:31:47.851Z,79.24
2022-08-03T03:32:47.836Z,78.66
2022-08-03T03:33:47.821Z,79.62
2022-08-03T03:34:47.810Z,79.43
2022-08-03T03:35:47.793Z,79.24
2022-08-03T03:36:47.786Z,79.14
2022-08-03T03:37:47.776Z,79.43
2022-08-03T03:38:47.757Z,79.24
2022-08-03T03:39:47.741Z,79.33
2022-08-03T03:40:47.731Z,79.43
2022-08-03T03:41:47.714Z,79.24
2022-08-03T03:42:47.699Z,79.43
2022-08-03T03:43:47.693Z,79.24
2022-08-03T03:44:47.674Z,79.72
2022-08-03T03:45:47.655Z,79.14
2022-08-03T03:46:47.647Z,79.33
2022-08-03T03:47:47.628Z,79.91
2022-08-03T03:48:47.616Z,79.72
2022-08-03T03:49:47.602Z,79.72
2022-08-03T03:50:47.590Z,79.72
2022-08-03T03:51:47.575Z,79.72
2022-08-03T03:52:47.561Z,79.81
2022-08-03T03:53:47.545Z,80.00
2022-08-03T03:54:47.534Z,79.91
2022-08-03T03:56:01.191Z,80.10
2022-08-03T03:56:47.503Z,79.91
2022-08-03T03:57:47.492Z,80.10
2022-08-03T03:58:47.477Z,79.91
2022-08-03T03:59:47.461Z,79.81
2022-08-03T04:00:47.521Z,79.81
2022-08-03T04:01:47.434Z,80.00
2022-08-03T04:02:47.420Z,80.10
2022-08-03T04:03:47.406Z,80.29
2022-08-03T04:04:47.393Z,80.38
2022-08-03T04:05:47.386Z,80.19
2022-08-03T04:06:47.365Z,80.29
2022-08-03T04:07:47.354Z,80.38
2022-08-03T04:08:47.340Z,80.00
2022-08-03T04:09:47.324Z,80.29
2022-08-03T04:10:47.311Z,80.10
2022-08-03T04:11:47.303Z,80.10
2022-08-03T04:12:49.966Z,80.29
2022-08-03T04:13:47.268Z,80.25
2022-08-03T04:14:47.265Z,80.00
2022-08-03T04:15:47.238Z,80.38
2022-08-03T04:16:47.226Z,80.58
2022-08-03T04:17:47.209Z,80.87
2022-08-03T04:18:47.200Z,81.15
2022-08-03T04:19:47.183Z,80.87
2022-08-03T04:20:47.659Z,80.67
2022-08-03T04:21:47.156Z,81.25
2022-08-03T04:22:47.145Z,81.54
2022-08-03T04:23:47.127Z,80.87
2022-08-03T04:24:47.116Z,80.87
2022-08-03T04:25:47.103Z,80.87
2022-08-03T04:26:50.932Z,80.77
2022-08-03T04:27:47.073Z,81.34
2022-08-03T04:28:47.059Z,81.34
2022-08-03T04:29:48.478Z,81.34
2022-08-03T04:30:47.031Z,81.25
2022-08-03T04:31:47.017Z,81.63
2022-08-03T04:32:47.002Z,81.44
2022-08-03T04:33:46.990Z,81.92
2022-08-03T04:34:46.982Z,81.92
2022-08-03T04:36:01.375Z,81.82
2022-08-03T04:36:46.953Z,81.82
2022-08-03T04:37:46.933Z,81.44
2022-08-03T04:38:46.930Z,81.63
2022-08-03T04:39:46.910Z,81.63
2022-08-03T04:40:46.891Z,81.54
2022-08-03T04:42:07.244Z,81.34
2022-08-03T04:42:46.872Z,81.44
2022-08-03T04:43:46.850Z,81.73
2022-08-03T04:44:46.842Z,81.63
2022-08-03T04:45:46.821Z,81.82
2022-08-03T04:46:46.824Z,82.01
2022-08-03T04:47:46.793Z,82.20
2022-08-03T04:48:46.783Z,82.01
2022-08-03T04:49:46.766Z,81.63
2022-08-03T04:50:46.757Z,81.92
2022-08-03T04:51:46.743Z,81.96
2022-08-03T04:52:46.728Z,82.01
2022-08-03T04:53:46.715Z,81.86
2022-08-03T04:54:50.655Z,82.15
2022-08-03T04:55:46.689Z,82.24
2022-08-03T04:56:46.669Z,82.34
2022-08-03T04:57:46.659Z,82.24
2022-08-03T04:58:46.645Z,82.24
2022-08-03T04:59:46.632Z,82.06
2022-08-03T05:00:46.619Z,82.63
2022-08-03T05:01:46.673Z,82.43
2022-08-03T05:02:46.593Z,82.43
2022-08-03T05:03:46.572Z,82.63
2022-08-03T05:04:46.569Z,82.53
2022-08-03T05:05:49.865Z,82.53
2022-08-03T05:06:48.390Z,82.53
2022-08-03T05:07:46.519Z,82.00
2022-08-03T05:08:47.141Z,82.29
2022-08-03T05:09:50.636Z,82.38
2022-08-03T05:10:46.479Z,81.81
2022-08-03T05:11:46.476Z,82.09
2022-08-03T05:12:46.469Z,82.09
2022-08-03T05:13:46.439Z,81.71
2022-08-03T05:14:46.427Z,81.43
2022-08-03T05:15:46.411Z,81.62
2022-08-03T05:16:46.399Z,81.71
2022-08-03T05:17:46.383Z,81.85
2022-08-03T05:18:46.376Z,81.66
2022-08-03T05:19:46.363Z,81.56
2022-08-03T05:20:46.365Z,80.99
2022-08-03T05:21:52.526Z,81.37
2022-08-03T05:22:46.317Z,81.18
2022-08-03T05:23:46.302Z,80.83
2022-08-03T05:24:46.287Z,80.16
2022-08-03T05:25:49.692Z,80.74
2022-08-03T05:26:46.265Z,80.16
2022-08-03T05:27:46.263Z,80.45
2022-08-03T05:28:50.863Z,80.30
2022-08-03T05:29:46.222Z,79.91
2022-08-03T05:30:46.211Z,79.82
2022-08-03T05:31:46.198Z,79.44
2022-08-03T05:32:46.187Z,79.05
2022-08-03T05:33:46.169Z,78.61
2022-08-03T05:34:46.165Z,78.61
2022-08-03T05:35:57.301Z,78.52
2022-08-03T05:36:46.130Z,78.23
2022-08-03T05:37:54.864Z,77.65
2022-08-03T05:38:46.109Z,77.21
2022-08-03T05:39:46.098Z,77.40
2022-08-03T05:40:56.991Z,77.01
2022-08-03T05:41:46.077Z,76.82
2022-08-03T05:42:46.054Z,76.48
2022-08-03T05:43:46.039Z,76.00
2022-08-03T05:44:46.027Z,75.71
2022-08-03T05:45:46.021Z,75.90
2022-08-03T05:46:46.006Z,76.00
2022-08-03T05:47:45.994Z,75.62
2022-08-03T05:48:45.975Z,75.27
2022-08-03T05:49:45.968Z,74.88
2022-08-03T05:50:45.958Z,74.69
2022-08-03T05:51:45.942Z,74.21
2022-08-03T05:52:45.946Z,74.15
2022-08-03T05:53:45.922Z,73.67
2022-08-03T05:54:56.988Z,73.38
2022-08-03T05:55:45.893Z,73.00
2022-08-03T05:56:45.883Z,72.90
2022-08-03T05:57:45.875Z,72.61
2022-08-03T05:58:45.858Z,72.55
2022-08-03T05:59:56.396Z,72.26
2022-08-03T06:00:45.831Z,71.88
2022-08-03T06:01:45.859Z,72.17
2022-08-03T06:02:45.811Z,71.78
2022-08-03T06:03:45.800Z,71.78
2022-08-03T06:04:45.785Z,71.59
2022-08-03T06:06:00.201Z,71.59
2022-08-03T06:06:45.761Z,71.20
2022-08-03T06:07:45.745Z,71.11
2022-08-03T06:08:45.735Z,71.14
2022-08-03T06:10:34.447Z,70.66
2022-08-03T06:10:45.712Z,70.47
2022-08-03T06:11:46.039Z,70.09
2022-08-03T06:12:45.686Z,69.60
2022-08-03T06:13:45.677Z,69.41
2022-08-03T06:14:45.666Z,69.22
2022-08-03T06:15:45.653Z,69.51
2022-08-03T06:16:45.641Z,69.12
2022-08-03T06:17:45.635Z,68.54
2022-08-03T06:18:45.632Z,68.84
2022-08-03T06:19:45.610Z,68.00
2022-08-03T06:20:45.597Z,68.29
2022-08-03T06:21:45.602Z,67.71
2022-08-03T06:22:51.056Z,67.90
2022-08-03T06:23:53.034Z,67.52
2022-08-03T06:24:53.451Z,67.81
2022-08-03T06:25:45.537Z,67.55
2022-08-03T06:26:45.527Z,66.88
2022-08-03T06:27:45.513Z,66.69
2022-08-03T06:28:53.054Z,66.39
2022-08-03T06:29:45.494Z,65.81
2022-08-03T06:30:45.481Z,65.95
2022-08-03T06:31:45.469Z,65.47
2022-08-03T06:32:51.696Z,65.56
2022-08-03T06:34:30.489Z,65.08
2022-08-03T06:34:45.437Z,64.50
2022-08-03T06:35:45.442Z,64.82
2022-08-03T06:36:45.412Z,64.63
2022-08-03T06:37:45.400Z,64.53
2022-08-03T06:38:45.390Z,63.85
2022-08-03T06:39:45.383Z,63.40
2022-08-03T06:40:45.375Z,64.08
2022-08-03T06:41:45.363Z,63.50
2022-08-03T06:42:45.349Z,63.60
2022-08-03T06:44:03.289Z,63.02
2022-08-03T06:44:45.332Z,63.34
2022-08-03T06:45:45.316Z,62.76
2022-08-03T06:46:45.306Z,62.66
2022-08-03T06:47:45.299Z,62.47
2022-08-03T06:48:45.287Z,62.21
2022-08-03T06:50:12.709Z,62.02
2022-08-03T06:50:45.263Z,62.21
2022-08-03T06:52:03.966Z,61.92
2022-08-03T06:52:45.404Z,61.34
2022-08-03T06:53:45.235Z,61.73
2022-08-03T06:54:45.226Z,61.57
2022-08-03T06:55:45.214Z,60.99
2022-08-03T06:56:45.201Z,60.99
2022-08-03T06:57:45.193Z,60.60
2022-08-03T06:58:45.187Z,60.69
2022-08-03T07:00:09.251Z,60.05
2022-08-03T07:00:45.177Z,59.86
2022-08-03T07:01:45.216Z,60.34
2022-08-03T07:02:45.145Z,59.66
2022-08-03T07:03:52.065Z,59.98
2022-08-03T07:04:45.125Z,59.69
2022-08-03T07:05:45.113Z,59.21
2022-08-03T07:06:45.105Z,59.31
2022-08-03T07:07:45.095Z,59.21
2022-08-03T07:08:45.097Z,58.65
2022-08-03T07:09:53.198Z,58.85
2022-08-03T07:10:45.068Z,58.27
2022-08-03T07:11:45.061Z,58.17
2022-08-03T07:12:55.995Z,57.98
2022-08-03T07:13:45.043Z,58.30
2022-08-03T07:14:45.042Z,57.98
2022-08-03T07:15:55.280Z,57.71
2022-08-03T07:16:45.027Z,57.23
2022-08-03T07:17:45.003Z,57.26
2022-08-03T07:18:44.993Z,57.07
2022-08-03T07:19:44.985Z,56.77
2022-08-03T07:20:44.975Z,56.51
2022-08-03T07:21:44.971Z,55.93
2022-08-03T07:22:44.959Z,56.03
2022-08-03T07:23:44.949Z,55.08
2022-08-03T07:24:44.949Z,55.28
2022-08-03T07:25:44.935Z,54.34
2022-08-03T07:26:44.922Z,54.05
2022-08-03T07:27:48.846Z,53.56
2022-08-03T07:28:44.911Z,53.49
2022-08-03T07:29:44.900Z,52.72
2022-08-03T07:30:44.894Z,52.42
2022-08-03T07:31:44.883Z,52.42
2022-08-03T07:32:49.891Z,51.97
2022-08-03T07:33:44.868Z,51.28
2022-08-03T07:34:44.863Z,51.40
2022-08-03T07:35:44.854Z,51.11
2022-08-03T07:36:44.855Z,50.82
2022-08-03T07:37:54.225Z,50.24
2022-08-03T07:38:44.841Z,49.56
2022-08-03T07:39:44.825Z,49.78
2022-08-03T07:40:46.412Z,49.58
2022-08-03T07:41:44.812Z,48.90
2022-08-03T07:42:44.803Z,48.90
2022-08-03T07:43:44.802Z,48.03
2022-08-03T07:44:44.793Z,47.93
2022-08-03T07:45:44.786Z,47.96
2022-08-03T07:46:44.780Z,47.56
2022-08-03T07:47:53.209Z,47.37
2022-08-03T07:48:44.769Z,47.00
2022-08-03T07:49:44.854Z,47.00
2022-08-03T07:50:44.761Z,46.83
2022-08-03T07:51:44.747Z,46.73
2022-08-03T07:52:44.737Z,46.66
2022-08-03T07:53:47.408Z,46.47
2022-08-03T07:54:44.748Z,46.10
2022-08-03T07:55:44.720Z,45.51
2022-08-03T07:56:44.720Z,45.03
2022-08-03T07:57:44.711Z,45.05
2022-08-03T07:58:44.707Z,44.66
2022-08-03T07:59:49.079Z,44.46
2022-08-03T08:00:44.693Z,44.17
2022-08-03T08:01:44.720Z,44.37
2022-08-03T08:02:44.689Z,44.29
2022-08-03T08:03:52.995Z,43.51
2022-08-03T08:04:44.680Z,43.73
2022-08-03T08:05:44.675Z,42.75
2022-08-03T08:06:44.666Z,42.48
2022-08-03T08:07:44.661Z,42.58
2022-08-03T08:08:44.669Z,42.11
2022-08-03T08:09:44.654Z,41.91
2022-08-03T08:10:58.388Z,41.64
2022-08-03T08:11:44.645Z,41.64
2022-08-03T08:12:44.644Z,40.88
2022-08-03T08:13:44.640Z,40.39
2022-08-03T08:14:44.635Z,40.48
2022-08-03T08:15:44.633Z,40.00
2022-08-03T08:16:44.627Z,40.09
2022-08-03T08:17:44.640Z,40.19
2022-08-03T08:18:44.623Z,40.00
2022-08-03T08:19:51.291Z,40.21
2022-08-03T08:20:44.615Z,39.72
2022-08-03T08:21:52.904Z,39.33
2022-08-03T08:22:44.612Z,39.45
2022-08-03T08:23:48.623Z,39.15
2022-08-03T08:24:44.618Z,38.98
2022-08-03T08:25:44.603Z,38.59
2022-08-03T08:26:44.598Z,38.21
2022-08-03T08:28:29.061Z,37.63
2022-08-03T08:28:44.591Z,37.73
2022-08-03T08:29:52.579Z,37.25
2022-08-03T08:30:44.587Z,37.35
2022-08-03T08:31:53.268Z,37.46
2022-08-03T08:34:05.408Z,36.68
2022-08-03T08:34:50.071Z,36.39
2022-08-03T08:35:50.069Z,36.40
2022-08-03T08:36:50.065Z,36.01
2022-08-03T08:37:51.241Z,35.82
2022-08-03T08:38:50.060Z,35.64
2022-08-03T08:39:50.059Z,35.26
2022-08-03T08:40:50.138Z,35.05
2022-08-03T08:41:53.182Z,34.97
2022-08-03T08:42:58.910Z,34.87
2022-08-03T08:43:50.052Z,34.67
2022-08-03T08:44:50.051Z,34.69
2022-08-03T08:45:50.049Z,34.11
2022-08-03T08:46:50.049Z,33.62
2022-08-03T08:47:51.396Z,33.44
2022-08-03T08:48:50.045Z,33.05
2022-08-03T08:50:08.985Z,32.57
2022-08-03T08:50:50.049Z,32.79
2022-08-03T08:51:59.413Z,32.39
2022-08-03T08:52:50.039Z,31.62
2022-08-03T08:53:50.043Z,31.03
2022-08-03T08:54:50.756Z,31.23
2022-08-03T08:55:59.445Z,31.13
2022-08-03T08:56:50.041Z,31.14
2022-08-03T08:57:50.043Z,30.94
2022-08-03T08:58:50.041Z,30.94
2022-08-03T08:59:51.591Z,30.58
2022-08-03T09:00:50.072Z,30.19
2022-08-03T09:01:50.037Z,29.80
2022-08-03T09:02:50.040Z,29.32
2022-08-03T09:03:50.036Z,29.32
2022-08-03T09:04:50.040Z,29.11
2022-08-03T09:05:56.574Z,29.11
2022-08-03T09:07:10.532Z,28.42
2022-08-03T09:07:50.040Z,28.31
2022-08-03T09:08:50.043Z,28.42
2022-08-03T09:10:10.948Z,28.42
2022-08-03T09:10:50.039Z,28.42
2022-08-03T09:11:57.609Z,28.34
2022-08-03T09:12:50.044Z,27.15
2022-08-03T09:13:50.042Z,26.76
2022-08-03T09:15:14.769Z,27.07
2022-08-03T09:16:00.625Z,26.97
2022-08-03T09:16:50.043Z,26.38
2022-08-03T09:17:51.343Z,26.38
2022-08-03T09:18:50.038Z,26.86
2022-08-03T09:20:03.416Z,27.25
2022-08-03T09:20:50.042Z,26.76
2022-08-03T09:21:50.045Z,26.57
2022-08-03T09:22:50.042Z,26.38
2022-08-03T09:24:02.196Z,26.29
2022-08-03T09:25:08.702Z,26.01
2022-08-03T09:25:50.045Z,25.62
2022-08-03T09:26:50.041Z,25.63
2022-08-03T09:27:50.044Z,25.24
2022-08-03T09:28:59.782Z,24.85
2022-08-03T09:29:50.050Z,24.66
2022-08-03T09:30:50.050Z,24.36
2022-08-03T09:31:50.050Z,24.36
2022-08-03T09:32:50.054Z,24.07
2022-08-03T09:33:50.053Z,23.97
2022-08-03T09:34:50.051Z,24.37
2022-08-03T09:35:54.487Z,24.29
2022-08-03T09:36:50.055Z,24.21
2022-08-03T09:38:08.588Z,23.32
2022-08-03T09:38:50.306Z,23.33
2022-08-03T09:39:50.054Z,22.74
2022-08-03T09:40:50.090Z,22.84
2022-08-03T09:41:50.058Z,22.94
2022-08-03T09:42:50.055Z,22.25
2022-08-03T09:43:50.064Z,22.25
2022-08-03T09:44:50.071Z,22.26
2022-08-03T09:45:50.063Z,22.37
2022-08-03T09:46:50.277Z,22.17
2022-08-03T09:47:50.069Z,22.28
2022-08-03T09:48:50.067Z,22.18
2022-08-03T09:49:50.069Z,21.99
2022-08-03T09:50:56.862Z,21.89
2022-08-03T09:52:31.526Z,21.00
2022-08-03T09:52:52.744Z,21.28
2022-08-03T09:53:58.555Z,21.28
2022-08-03T09:54:50.081Z,21.17
2022-08-03T09:56:35.256Z,21.87
2022-08-03T09:56:50.083Z,21.86
2022-08-03T09:57:50.091Z,21.97
2022-08-03T09:58:50.093Z,21.58
2022-08-03T09:59:50.096Z,20.98
2022-08-03T10:00:50.137Z,21.00
2022-08-03T10:01:50.095Z,20.61
2022-08-03T10:02:50.097Z,20.32
2022-08-03T10:04:04.099Z,19.92
2022-08-03T10:04:50.105Z,20.12
2022-08-03T10:05:50.107Z,20.11
2022-08-03T10:06:50.109Z,20.41
2022-08-03T10:07:50.114Z,20.21
2022-08-03T10:08:50.119Z,20.22
2022-08-03T10:09:50.118Z,20.32
2022-08-03T10:10:50.126Z,19.73
2022-08-03T10:11:50.125Z,19.13
2022-08-03T10:12:50.128Z,19.43
2022-08-03T10:13:50.127Z,19.33
2022-08-03T10:14:50.140Z,19.61
2022-08-03T10:16:22.022Z,20.00
2022-08-03T10:16:50.153Z,20.19
2022-08-03T10:17:50.141Z,20.09
2022-08-03T10:18:50.143Z,20.18
2022-08-03T10:19:50.147Z,20.29
2022-08-03T10:20:50.151Z,20.09
2022-08-03T10:21:50.169Z,20.40
2022-08-03T10:22:50.157Z,20.40
2022-08-03T10:23:50.160Z,20.10
2022-08-03T10:24:50.161Z,20.29
2022-08-03T10:25:50.166Z,20.18
2022-08-03T10:26:50.346Z,20.18
2022-08-03T10:27:50.173Z,20.48
2022-08-03T10:28:50.173Z,20.48
2022-08-03T10:29:50.177Z,19.97
2022-08-03T10:30:50.178Z,20.17
2022-08-03T10:31:54.760Z,20.48
2022-08-03T10:32:50.183Z,20.29
2022-08-03T10:33:52.870Z,19.50
2022-08-03T10:34:50.190Z,19.40
2022-08-03T10:35:50.192Z,19.31
2022-08-03T10:36:50.195Z,19.41
2022-08-03T10:37:57.122Z,19.51
2022-08-03T10:38:50.198Z,19.12
2022-08-03T10:39:50.202Z,19.10
2022-08-03T10:40:52.669Z,19.10
2022-08-03T10:41:50.206Z,19.58
2022-08-03T10:42:50.220Z,19.59
2022-08-03T10:43:50.214Z,19.49
2022-08-03T10:44:50.220Z,19.20
2022-08-03T10:45:50.223Z,19.29
2022-08-03T10:46:50.221Z,19.31
2022-08-03T10:47:50.226Z,19.12
2022-08-03T10:48:50.226Z,19.21
2022-08-03T10:49:50.327Z,19.21
2022-08-03T10:50:50.236Z,18.73
2022-08-03T10:51:52.929Z,18.73
2022-08-03T10:52:50.239Z,18.43
2022-08-03T10:53:55.526Z,18.33
2022-08-03T10:54:50.246Z,18.44
2022-08-03T10:55:50.253Z,18.54
2022-08-03T10:56:50.504Z,18.45
2022-08-03T10:57:50.252Z,18.55
2022-08-03T10:58:57.239Z,18.25
2022-08-03T10:59:50.260Z,17.96
2022-08-03T11:00:50.314Z,17.77
2022-08-03T11:02:00.802Z,17.78
2022-08-03T11:02:50.271Z,17.78
2022-08-03T11:03:50.274Z,17.27
2022-08-03T11:04:50.280Z,17.67
2022-08-03T11:05:50.279Z,17.37
2022-08-03T11:06:50.287Z,17.96
2022-08-03T11:07:54.611Z,17.87
2022-08-03T11:08:50.294Z,17.57
2022-08-03T11:09:50.313Z,17.48
2022-08-03T11:10:50.299Z,17.38
2022-08-03T11:11:50.308Z,17.29
2022-08-03T11:12:50.311Z,17.19
2022-08-03T11:13:50.311Z,17.29
2022-08-03T11:14:50.312Z,17.29
2022-08-03T11:15:50.320Z,17.18
2022-08-03T11:16:50.323Z,17.37
2022-08-03T11:17:56.007Z,17.66
2022-08-03T11:18:50.336Z,17.66
2022-08-03T11:19:56.681Z,17.56
2022-08-03T11:20:50.341Z,17.16
2022-08-03T11:21:50.346Z,17.16
2022-08-03T11:22:50.349Z,17.25
2022-08-03T11:24:04.810Z,17.14
2022-08-03T11:24:50.358Z,17.24
2022-08-03T11:25:55.052Z,17.53
2022-08-03T11:26:50.363Z,17.23
2022-08-03T11:27:50.365Z,17.53
2022-08-03T11:28:50.372Z,17.73
2022-08-03T11:29:50.377Z,17.33
2022-08-03T11:30:50.375Z,17.53
2022-08-03T11:31:51.678Z,17.33
2022-08-03T11:32:50.388Z,17.32
2022-08-03T11:33:50.389Z,17.43
2022-08-03T11:34:50.390Z,17.14
2022-08-03T11:35:50.390Z,17.14
2022-08-03T11:36:50.394Z,17.05
2022-08-03T11:38:01.474Z,16.75
2022-08-03T11:38:50.403Z,16.56
2022-08-03T11:39:50.409Z,16.66
2022-08-03T11:40:50.409Z,16.67
2022-08-03T11:41:50.416Z,16.48
2022-08-03T11:42:50.414Z,16.38
2022-08-03T11:43:50.418Z,16.39
2022-08-03T11:44:50.420Z,16.30
2022-08-03T11:45:50.426Z,15.70
2022-08-03T11:46:50.428Z,15.70
2022-08-03T11:47:51.472Z,15.81
2022-08-03T11:48:50.437Z,15.42
2022-08-03T11:49:50.443Z,15.63
2022-08-03T11:50:50.453Z,15.22
2022-08-03T11:51:50.445Z,15.12
2022-08-03T11:52:50.456Z,15.63
2022-08-03T11:53:50.454Z,15.53
2022-08-03T11:54:50.457Z,15.24
2022-08-03T11:55:50.463Z,15.34
2022-08-03T11:56:50.472Z,15.55
2022-08-03T11:59:01.609Z,15.05
2022-08-03T11:59:12.827Z,15.15
2022-08-03T11:59:50.480Z,14.85
2022-08-03T12:00:50.486Z,14.65
2022-08-03T12:01:50.490Z,14.95
2022-08-03T12:02:50.532Z,14.95
2022-08-03T12:03:50.497Z,14.84
2022-08-03T12:04:50.504Z,14.94
2022-08-03T12:05:51.767Z,15.04
2022-08-03T12:06:51.181Z,15.23
2022-08-03T12:08:03.273Z,15.33
2022-08-03T12:08:50.521Z,15.33
2022-08-03T12:09:50.526Z,15.34
2022-08-03T12:10:50.530Z,15.03
2022-08-03T12:11:59.824Z,14.83
2022-08-03T12:12:50.538Z,14.71
2022-08-03T12:14:44.892Z,15.20
2022-08-03T12:14:52.506Z,15.30
2022-08-03T12:15:50.555Z,15.09
2022-08-03T12:16:50.554Z,15.19
2022-08-03T12:17:52.779Z,15.19
2022-08-03T12:18:50.565Z,15.59
2022-08-03T12:19:50.569Z,15.39
2022-08-03T12:20:50.572Z,15.59
2022-08-03T12:21:57.349Z,15.79
2022-08-03T12:22:50.583Z,15.50
2022-08-03T12:23:50.583Z,15.21
2022-08-03T12:24:50.593Z,15.31
2022-08-03T12:25:50.595Z,15.42
2022-08-03T12:26:54.493Z,15.12
2022-08-03T12:27:50.601Z,15.32
2022-08-03T12:28:50.603Z,14.83
2022-08-03T12:29:58.542Z,14.83
2022-08-03T12:30:50.612Z,14.92
2022-08-03T12:31:50.617Z,15.11
2022-08-03T12:32:50.619Z,15.20
2022-08-03T12:33:50.621Z,15.31
2022-08-03T12:34:50.641Z,15.01
2022-08-03T12:35:52.331Z,14.92
2022-08-03T12:36:50.635Z,14.72
2022-08-03T12:37:50.637Z,14.63
2022-08-03T12:38:50.640Z,14.34
2022-08-03T12:40:02.290Z,14.45
2022-08-03T12:40:50.656Z,13.85
2022-08-03T12:41:50.652Z,13.86
2022-08-03T12:42:50.672Z,13.57
2022-08-03T12:43:50.677Z,13.57
2022-08-03T12:44:50.664Z,13.17
2022-08-03T12:45:50.674Z,13.18
2022-08-03T12:46:50.698Z,12.88
2022-08-03T12:47:50.677Z,12.57
2022-08-03T12:48:50.682Z,12.37
2022-08-03T12:49:50.695Z,12.67
2022-08-03T12:50:53.572Z,12.87
2022-08-03T12:51:50.698Z,12.67
2022-08-03T12:52:50.702Z,12.87
2022-08-03T12:53:50.701Z,12.77
2022-08-03T12:54:50.710Z,12.77